ADDS METAR Data INFO
IDs: Format: Raw Decoded Include TAF

Data at: 0249 UTC 21 Jan 2018

KSMQ 210153Z AUTO 29003KT 10SM CLR 01/M03 A3001 RMK AO2 SLP165 T00111028
KSMQ 210053Z AUTO 00000KT 10SM CLR 01/M03 A3001 RMK AO2 SLP165 T00061028
KSMQ 202353Z AUTO 00000KT 10SM CLR 04/M02 A2999 RMK AO2 SLP157 T00441022 10106 20044 51028
KSMQ 202253Z AUTO 00000KT 10SM CLR 07/M02 A2996 RMK AO2 SLP147 T00721017
KSMQ 202153Z AUTO VRB04KT 10SM CLR 08/M02 A2994 RMK AO2 SLP139 T00831017
KSMQ 202053Z AUTO VRB05KT 10SM CLR 09/M02 A2990 RMK AO2 SLP129 T00891017 53013
KSMQ 201953Z AUTO 28010G16KT 230V310 10SM CLR 09/M02 A2988 RMK AO2 SLP121 T00941017
KSMQ 201853Z AUTO 27008G17KT 230V320 10SM CLR 10/M02 A2987 RMK AO2 SLP117 T01001017
KSMQ 201753Z AUTO VRB06G16KT 10SM CLR 10/M02 A2987 RMK AO2 SLP115 T01001022 10106 21017 58013
KSMQ 201653Z AUTO 29009G16KT 250V320 10SM CLR 10/M02 A2988 RMK AO2 SLP121 T01001022
KSMQ 201553Z AUTO 27007G14KT 10SM CLR 09/M02 A2990 RMK AO2 SLP128 T00941022
KSMQ 201453Z AUTO VRB05KT 10SM CLR 08/M03 A2991 RMK AO2 SLP130 T00781028 53009
KSMQ 201353Z AUTO VRB03KT 10SM CLR 03/M03 A2990 RMK AO2 SLP126 T00331033
KSMQ 201253Z AUTO 19004KT 10SM CLR 00/M05 A2988 RMK AO2 SLP121 T00001050
KSMQ 201153Z AUTO 00000KT 10SM CLR M02/M06 A2988 RMK AO2 SLP120 T10171061 11017 21067 56004
KSMQ 201053Z AUTO 00000KT 10SM CLR M04/M07 A2988 RMK AO2 SLP122 T10441067
KSMQ 200953Z AUTO 00000KT 10SM CLR M03/M07 A2988 RMK AO2 SLP120 T10331067
KSMQ 200853Z AUTO VRB03KT 10SM CLR M06/M07 A2989 RMK AO2 SLP124 T10561072 58010
KSMQ 200753Z AUTO 00000KT 10SM CLR M06/M08 A2991 RMK AO2 SLP131 T10561078
KSMQ 200653Z AUTO 00000KT 9SM CLR M06/M07 A2991 RMK AO2 SLP132 T10561067
KSMQ 200553Z AUTO 00000KT 9SM CLR M05/M07 A2992 RMK AO2 SLP134 T10501072 11028 21061 56017
KSMQ 200453Z AUTO 00000KT 8SM CLR M06/M07 A2993 RMK AO2 SLP139 T10611067 400331128
KSMQ 200353Z AUTO 00000KT 8SM CLR M06/M07 A2996 RMK AO2 SLP147 T10561072
KSMQ 200253Z AUTO 00000KT 9SM CLR M05/M07 A2997 RMK AO2 SLP152 T10501067 58002
KSMQ 200153Z AUTO 00000KT 9SM CLR M04/M07 A2997 RMK AO2 SLP154 T10441067
KSMQ 200053Z AUTO 00000KT 10SM CLR M04/M07 A2998 RMK AO2 SLP155 T10391067
KSMQ 192353Z AUTO 00000KT 10SM CLR M03/M06 A2998 RMK AO2 SLP154 T10281061 10033 21028 50001
KSMQ 192253Z AUTO 00000KT 10SM CLR M01/M07 A2998 RMK AO2 SLP154 T10111067
KSMQ 192153Z AUTO VRB03KT 10SM CLR 03/M07 A2998 RMK AO2 SLP155 T00281072
KSMQ 192053Z AUTO 00000KT 10SM CLR 03/M07 A2997 RMK AO2 SLP152 T00281067 55011
KSMQ 191953Z AUTO VRB04KT 10SM CLR 03/M07 A2997 RMK AO2 SLP150 T00281072
KSMQ 191853Z AUTO 10SM CLR 03/M07 A2999 RMK AO2 SLP156 T00331072
KSMQ 191753Z AUTO VRB05KT 10SM CLR 02/M08 A3000 RMK AO2 SLP164 T00171083 10017 21122 58028
KSMQ 191653Z AUTO VRB03KT 10SM CLR 01/M08 A3004 RMK AO2 SLP175 T00061083
KSMQ 191553Z AUTO 00000KT 7SM CLR M02/M06 A3007 RMK AO2 SLP185 T10221056
KSMQ 191453Z AUTO 00000KT 6SM BR CLR M07/M07 A3009 RMK AO2 SLP192 T10671072 53005